createdAt,value
2022-12-20T00:02:26.753Z,17.7
2022-12-20T00:07:29.463Z,17.7
2022-12-20T00:12:29.189Z,17.8
2022-12-20T00:17:29.423Z,17.7
2022-12-20T00:22:29.643Z,17.6
2022-12-20T00:27:29.918Z,17.7
2022-12-20T00:32:30.308Z,17.7
2022-12-20T00:37:30.679Z,17.7
2022-12-20T00:42:31.233Z,17.5
2022-12-20T00:47:31.473Z,17.6
2022-12-20T00:52:31.644Z,17.5
2022-12-20T00:57:31.624Z,17.6
2022-12-20T01:02:32.036Z,17.6
2022-12-20T01:07:32.130Z,17.6
2022-12-20T01:12:32.386Z,17.4
2022-12-20T01:17:32.505Z,17.6
2022-12-20T01:22:32.751Z,17.6
2022-12-20T01:27:32.981Z,17.5
2022-12-20T01:32:33.168Z,17.6
2022-12-20T01:37:33.324Z,17.6
2022-12-20T01:42:33.669Z,17.5
2022-12-20T01:47:36.467Z,17.6
2022-12-20T01:52:39.022Z,17.4
2022-12-20T01:57:38.703Z,17.5
2022-12-20T02:02:39.076Z,17.5
2022-12-20T02:07:38.836Z,17.5
2022-12-20T02:12:39.168Z,17.5
2022-12-20T02:17:39.193Z,17.5
2022-12-20T02:22:39.611Z,17.4
2022-12-20T02:27:39.687Z,17.5
2022-12-20T02:32:39.852Z,17.5
2022-12-20T02:37:39.800Z,17.5
2022-12-20T02:42:40.203Z,17.5
2022-12-20T02:47:42.242Z,17.4
2022-12-20T02:52:42.804Z,17.4
2022-12-20T02:57:42.312Z,17.5
2022-12-20T03:02:42.684Z,17.3
2022-12-20T03:07:42.844Z,17.5
2022-12-20T03:12:43.083Z,17.4
2022-12-20T03:17:43.194Z,17.4
2022-12-20T03:22:43.357Z,17.4
2022-12-20T03:27:43.734Z,17.3
2022-12-20T03:32:46.648Z,17.2
2022-12-20T03:37:45.303Z,17.3
2022-12-20T03:42:45.865Z,17.4
2022-12-20T03:47:45.932Z,17.3
2022-12-20T03:52:45.875Z,17.4
2022-12-20T03:57:48.764Z,17.3
2022-12-20T04:02:48.530Z,17.2
2022-12-20T04:07:48.268Z,17.3
2022-12-20T04:12:48.536Z,17.3
2022-12-20T04:17:48.999Z,17.2
2022-12-20T04:22:49.250Z,17.3
2022-12-20T04:27:49.414Z,17.2
2022-12-20T04:32:49.526Z,17.3
2022-12-20T04:37:49.818Z,17.2
2022-12-20T04:42:50.054Z,17.3
2022-12-20T04:47:50.317Z,17.2
2022-12-20T04:52:50.744Z,17.2
2022-12-20T04:57:54.009Z,17.2
2022-12-20T05:02:53.939Z,17.1
2022-12-20T05:07:53.840Z,17.2
2022-12-20T05:12:54.094Z,17.2
2022-12-20T05:17:57.043Z,17.2
2022-12-20T05:22:56.952Z,17.1
2022-12-20T05:27:56.980Z,17.2
2022-12-20T05:32:59.947Z,17.2
2022-12-20T05:37:59.715Z,17.2
2022-12-20T05:42:59.976Z,17.1
2022-12-20T05:48:00.134Z,17.3
2022-12-20T05:53:02.513Z,17.3
2022-12-20T05:58:00.444Z,17.1
2022-12-20T06:03:03.666Z,17.3
2022-12-20T06:08:03.250Z,17.4
2022-12-20T06:13:06.174Z,17.4
2022-12-20T06:18:06.031Z,17.3
2022-12-20T06:23:08.747Z,17.3
2022-12-20T06:28:08.539Z,17.3
2022-12-20T06:33:08.866Z,17.5
2022-12-20T06:38:09.206Z,17.6
2022-12-20T06:43:12.299Z,17.6
2022-12-20T06:48:12.217Z,17.9
2022-12-20T06:53:12.345Z,17.9
2022-12-20T06:58:12.579Z,18.1
2022-12-20T07:03:13.013Z,18.2
2022-12-20T07:08:12.917Z,18.4
2022-12-20T07:13:15.661Z,18.5
2022-12-20T07:18:16.277Z,18.5
2022-12-20T07:23:16.273Z,18.6
2022-12-20T07:28:16.319Z,18.7
2022-12-20T07:33:16.770Z,18.8
2022-12-20T07:38:19.839Z,18.9
2022-12-20T07:43:19.574Z,18.9
2022-12-20T07:48:22.081Z,18.9
2022-12-20T07:53:21.673Z,18.9
2022-12-20T07:58:21.943Z,19
2022-12-20T08:03:22.162Z,19
2022-12-20T08:08:22.357Z,18.8
2022-12-20T08:13:22.429Z,18.9
2022-12-20T08:18:22.535Z,18.9
2022-12-20T08:23:25.540Z,18.9
2022-12-20T08:28:27.979Z,18.9
2022-12-20T08:33:27.627Z,18.9
2022-12-20T08:38:30.528Z,18.9
2022-12-20T08:43:30.016Z,18.9
2022-12-20T08:48:30.183Z,18.8
2022-12-20T08:53:30.431Z,18.8
2022-12-20T08:58:30.403Z,18.7
2022-12-20T09:03:30.480Z,18.7
2022-12-20T09:08:30.518Z,18.6
2022-12-20T09:13:30.503Z,18.6
2022-12-20T09:18:30.699Z,18.6
2022-12-20T09:23:33.549Z,18.6
2022-12-20T09:28:33.271Z,18.6
2022-12-20T09:33:33.433Z,18.5
2022-12-20T09:38:33.570Z,18.4
2022-12-20T09:43:33.724Z,18.5
2022-12-20T09:48:36.538Z,18.6
2022-12-20T09:53:36.271Z,18.6
2022-12-20T09:58:36.344Z,18.6
2022-12-20T10:03:36.669Z,18.6
2022-12-20T10:08:36.782Z,18.4
2022-12-20T10:13:37.044Z,18.6
2022-12-20T10:18:37.293Z,18.6
2022-12-20T10:23:37.631Z,18.6
2022-12-20T10:28:38.088Z,18.8
2022-12-20T10:33:38.097Z,18.7
2022-12-20T10:38:38.257Z,18.6
2022-12-20T10:43:38.367Z,18.6
2022-12-20T10:48:41.176Z,18.8
2022-12-20T10:53:40.554Z,18.7
2022-12-20T10:58:40.855Z,18.7
2022-12-20T11:03:41.965Z,19.1
2022-12-20T11:08:51.413Z,19.1
2022-12-20T11:13:44.769Z,19.3
2022-12-20T11:18:44.960Z,19.5
2022-12-20T11:23:45.430Z,19.5
2022-12-20T11:28:45.675Z,19.6
2022-12-20T11:33:47.819Z,19.7
2022-12-20T11:38:47.802Z,19.8
2022-12-20T11:44:15.571Z,19.8
2022-12-20T11:48:48.482Z,19.8
2022-12-20T11:53:51.428Z,19.9
2022-12-20T11:58:53.971Z,20.1
2022-12-20T12:03:54.609Z,20.1
2022-12-20T12:08:54.603Z,20.1
2022-12-20T12:13:54.779Z,20.2
2022-12-20T12:18:54.985Z,20.3
2022-12-20T12:23:55.246Z,20.4
2022-12-20T12:28:55.313Z,20.4
2022-12-20T12:33:55.553Z,20.5
2022-12-20T12:39:01.810Z,20.4
2022-12-20T12:43:56.037Z,20.2
2022-12-20T12:48:56.506Z,20.4
2022-12-20T12:53:56.771Z,20.4
2022-12-20T12:58:57.092Z,20.4
2022-12-20T13:03:57.567Z,20.4
2022-12-20T13:08:57.560Z,20.4
2022-12-20T13:13:57.718Z,20.4
2022-12-20T13:18:57.901Z,20.2
2022-12-20T13:23:57.946Z,20.4
2022-12-20T13:29:00.875Z,20.4
2022-12-20T13:34:00.442Z,20.4
2022-12-20T13:39:00.728Z,20.3
2022-12-20T13:44:01.738Z,20.4
2022-12-20T13:49:04.593Z,20.3
2022-12-20T13:54:04.266Z,20.3
2022-12-20T13:59:04.193Z,20.3
2022-12-20T14:04:04.368Z,20.3
2022-12-20T14:09:07.158Z,20.2
2022-12-20T14:14:09.777Z,20
2022-12-20T14:19:09.292Z,20.3
2022-12-20T14:24:09.465Z,20.3
2022-12-20T14:29:09.535Z,20.3
2022-12-20T14:34:10.047Z,20.3
2022-12-20T14:39:09.936Z,20.2
2022-12-20T14:44:10.316Z,20.2
2022-12-20T14:49:13.549Z,20.2
2022-12-20T14:54:25.972Z,20.3
2022-12-20T14:59:13.442Z,20.2
2022-12-20T15:04:13.671Z,20.2
2022-12-20T15:09:14.087Z,20.3
2022-12-20T15:14:14.265Z,20.2
2022-12-20T15:19:14.414Z,20.3
2022-12-20T15:24:14.804Z,20
2022-12-20T15:29:17.702Z,20.2
2022-12-20T15:34:17.292Z,20.1
2022-12-20T15:39:17.562Z,20.1
2022-12-20T15:44:17.668Z,20
2022-12-20T15:49:17.673Z,20.1
2022-12-20T15:54:17.903Z,20.1
2022-12-20T15:59:57.365Z,20.1
2022-12-20T16:04:17.936Z,20
2022-12-20T16:09:18.212Z,19.9
2022-12-20T16:14:18.384Z,20.1
2022-12-20T16:19:18.779Z,19.9
2022-12-20T16:24:21.489Z,20
2022-12-20T16:29:20.888Z,20
2022-12-20T16:34:22.012Z,20
2022-12-20T16:39:21.775Z,20
2022-12-20T16:44:22.019Z,19.9
2022-12-20T16:49:22.383Z,19.8
2022-12-20T16:54:22.980Z,19.9
2022-12-20T16:59:23.475Z,20
2022-12-20T17:04:23.362Z,19.9
2022-12-20T17:14:28.023Z,20
2022-12-20T17:19:28.163Z,19.8
2022-12-20T17:24:28.245Z,20
2022-12-20T17:29:28.698Z,19.9
2022-12-20T17:34:28.916Z,19.9
2022-12-20T17:39:29.280Z,20
2022-12-20T17:44:29.545Z,19.9
2022-12-20T17:49:32.453Z,19.9
2022-12-20T17:54:39.865Z,20
2022-12-20T17:59:34.695Z,19.8
2022-12-20T18:04:33.977Z,19.5
2022-12-20T18:09:33.557Z,19.3
2022-12-20T18:14:33.645Z,19.2
2022-12-20T18:19:33.787Z,18.9
2022-12-20T18:24:33.830Z,18.8
2022-12-20T18:29:33.920Z,18.9
2022-12-20T18:34:35.037Z,18.8
2022-12-20T18:39:34.853Z,18.7
2022-12-20T18:44:37.856Z,18.7
2022-12-20T18:49:37.723Z,18.5
2022-12-20T18:54:40.495Z,18.5
2022-12-20T18:59:40.090Z,18.5
2022-12-20T19:04:43.099Z,18.5
2022-12-20T19:09:42.604Z,18.4
2022-12-20T19:14:45.360Z,18.4
2022-12-20T19:19:45.168Z,18.4
2022-12-20T19:24:45.342Z,18.2
2022-12-20T19:29:45.491Z,18.3
2022-12-20T19:34:44.530Z,18.3
2022-12-20T19:39:47.666Z,18.2
2022-12-20T19:44:47.340Z,18.2
2022-12-20T19:49:50.275Z,18.1
2022-12-20T19:54:52.647Z,18
2022-12-20T19:59:55.666Z,18.1
2022-12-20T20:04:55.173Z,18
2022-12-20T20:09:55.024Z,18
2022-12-20T20:14:55.347Z,18
2022-12-20T20:19:55.818Z,18.1
2022-12-20T20:24:56.164Z,18
2022-12-20T20:29:56.354Z,18
2022-12-20T20:34:56.690Z,18
2022-12-20T20:39:59.790Z,17.9
2022-12-20T20:44:59.441Z,18
2022-12-20T20:49:59.625Z,18
2022-12-20T20:54:59.715Z,18
2022-12-20T20:59:59.978Z,18
2022-12-20T21:05:47.479Z,17.8
2022-12-20T21:10:01.528Z,17.9
2022-12-20T21:15:21.615Z,17.9
2022-12-20T21:20:01.662Z,17.9
2022-12-20T21:25:02.847Z,17.8
2022-12-20T21:30:03.005Z,17.9
2022-12-20T21:35:03.253Z,17.8
2022-12-20T21:40:06.227Z,17.9
2022-12-20T21:45:05.976Z,17.9
2022-12-20T21:50:08.952Z,17.8
2022-12-20T21:55:08.717Z,17.8
2022-12-20T22:00:09.004Z,17.8
2022-12-20T22:05:11.154Z,17.6
2022-12-20T22:10:11.035Z,17.8
2022-12-20T22:15:11.263Z,17.8
2022-12-20T22:20:11.583Z,17.8
2022-12-20T22:25:11.559Z,17.8
2022-12-20T22:30:11.868Z,17.6
2022-12-20T22:35:19.142Z,17.6
2022-12-20T22:40:15.259Z,17.6
2022-12-20T22:45:15.275Z,17.6
2022-12-20T22:50:15.485Z,17.6
2022-12-20T22:55:15.588Z,17.7
2022-12-20T23:00:18.643Z,17.7
2022-12-20T23:05:18.546Z,17.7
2022-12-20T23:10:18.976Z,17.7
2022-12-20T23:15:19.326Z,17.6
2022-12-20T23:20:22.381Z,17.7
2022-12-20T23:25:21.994Z,17.6
2022-12-20T23:30:22.082Z,17.7
2022-12-20T23:35:24.937Z,17.6
2022-12-20T23:40:27.855Z,17.7
2022-12-20T23:45:28.605Z,17.6
2022-12-20T23:50:29.543Z,17.4
2022-12-20T23:55:29.721Z,17.6
